createdAt,value
2022-12-31T00:10:55.610Z,76.78
2022-12-31T00:17:47.555Z,76.61
2022-12-31T00:24:38.694Z,77.75
2022-12-31T00:31:37.607Z,78.51
2022-12-31T00:42:50.651Z,78.95
2022-12-31T00:54:13.453Z,78.88
2022-12-31T00:56:45.173Z,78.53
2022-12-31T00:59:16.220Z,78.57
2022-12-31T01:01:47.494Z,78.82
2022-12-31T01:04:21.368Z,79.84
2022-12-31T01:06:49.511Z,79.58
2022-12-31T01:09:21.228Z,78.98
2022-12-31T01:11:52.251Z,79.62
2022-12-31T01:14:23.201Z,79.28
2022-12-31T01:16:54.452Z,79.79
2022-12-31T01:19:28.601Z,80.12
2022-12-31T01:21:59.479Z,79.50
2022-12-31T01:24:30.554Z,80.10
2022-12-31T01:27:01.304Z,79.98
2022-12-31T01:29:32.180Z,80.70
2022-12-31T01:32:03.315Z,80.38
2022-12-31T01:34:32.895Z,80.59
2022-12-31T01:37:03.705Z,80.47
2022-12-31T01:39:34.614Z,80.59
2022-12-31T01:42:05.533Z,80.89
2022-12-31T01:44:38.565Z,80.87
2022-12-31T01:47:16.141Z,80.95
2022-12-31T01:50:03.426Z,81.06
2022-12-31T01:52:42.603Z,81.42
2022-12-31T01:55:34.728Z,81.75
2022-12-31T01:58:20.379Z,81.58
2022-12-31T02:00:51.990Z,82.42
2022-12-31T02:03:26.389Z,82.83
2022-12-31T02:06:17.243Z,82.65
2022-12-31T02:08:48.646Z,82.63
2022-12-31T02:11:34.594Z,82.86
2022-12-31T02:14:15.445Z,82.91
2022-12-31T02:16:58.067Z,82.20
2022-12-31T02:19:40.913Z,82.12
2022-12-31T02:22:52.251Z,82.08
2022-12-31T02:25:45.845Z,82.52
2022-12-31T02:28:51.273Z,82.74
2022-12-31T02:31:27.020Z,81.90
2022-12-31T02:34:22.272Z,81.88
2022-12-31T02:36:56.716Z,82.40
2022-12-31T02:39:29.520Z,82.89
2022-12-31T02:42:01.875Z,83.01
2022-12-31T02:44:40.160Z,82.79
2022-12-31T02:47:20.642Z,83.52
2022-12-31T02:50:27.306Z,83.09
2022-12-31T02:53:28.477Z,83.21
2022-12-31T02:56:08.432Z,83.42
2022-12-31T02:59:23.365Z,83.59
2022-12-31T03:02:15.078Z,83.52
2022-12-31T03:04:55.723Z,83.35
2022-12-31T03:07:30.161Z,82.82
2022-12-31T03:10:01.556Z,83.67
2022-12-31T03:12:47.118Z,83.32
2022-12-31T03:15:25.204Z,83.33
2022-12-31T03:18:05.540Z,83.81
2022-12-31T03:21:00.028Z,83.54
2022-12-31T03:23:37.911Z,83.88
2022-12-31T03:26:12.755Z,83.83
2022-12-31T03:28:47.929Z,83.96
2022-12-31T03:31:18.960Z,84.96
2022-12-31T03:33:49.948Z,84.81
2022-12-31T03:36:20.730Z,84.32
2022-12-31T03:38:53.251Z,84.96
2022-12-31T03:41:24.131Z,85.12
2022-12-31T03:43:55.186Z,84.72
2022-12-31T03:46:26.108Z,84.68
2022-12-31T03:48:56.811Z,84.74
2022-12-31T03:51:27.888Z,85.25
2022-12-31T03:53:58.582Z,84.88
2022-12-31T03:56:29.385Z,84.95
2022-12-31T03:59:00.863Z,84.28
2022-12-31T04:01:32.225Z,84.34
2022-12-31T04:04:05.370Z,84.41
2022-12-31T04:06:36.407Z,84.89
2022-12-31T04:09:07.407Z,85.87
2022-12-31T04:11:38.285Z,85.55
2022-12-31T04:14:09.224Z,85.73
2022-12-31T04:16:40.041Z,85.65
2022-12-31T04:19:12.439Z,85.64
2022-12-31T04:21:43.600Z,85.26
2022-12-31T04:24:14.685Z,85.33
2022-12-31T04:26:45.816Z,85.87
2022-12-31T04:29:16.939Z,86.00
2022-12-31T04:31:48.061Z,86.10
2022-12-31T04:34:19.205Z,85.84
2022-12-31T04:36:50.297Z,85.08
2022-12-31T04:39:21.447Z,85.49
2022-12-31T04:41:54.444Z,85.34
2022-12-31T04:44:25.327Z,85.54
2022-12-31T04:46:56.550Z,85.73
2022-12-31T04:49:27.631Z,86.49
2022-12-31T04:51:55.586Z,86.00
2022-12-31T04:54:26.631Z,86.11
2022-12-31T04:56:57.331Z,86.14
2022-12-31T04:59:29.269Z,85.77
2022-12-31T05:02:00.188Z,86.17
2022-12-31T05:04:31.136Z,86.22
2022-12-31T05:07:02.076Z,86.43
2022-12-31T05:09:32.750Z,86.06
2022-12-31T05:12:03.636Z,86.06
2022-12-31T05:14:34.674Z,85.72
2022-12-31T05:17:05.454Z,86.47
2022-12-31T05:19:36.283Z,85.84
2022-12-31T05:22:25.816Z,85.93
2022-12-31T05:24:58.969Z,86.30
2022-12-31T05:27:33.637Z,86.59
2022-12-31T05:30:06.040Z,86.42
2022-12-31T05:32:40.049Z,86.01
2022-12-31T05:35:11.619Z,86.57
2022-12-31T05:37:42.556Z,86.69
2022-12-31T05:40:13.191Z,86.44
2022-12-31T05:42:44.613Z,86.20
2022-12-31T05:45:16.057Z,86.17
2022-12-31T05:47:46.952Z,86.98
2022-12-31T05:50:16.683Z,86.48
2022-12-31T05:52:56.052Z,86.61
2022-12-31T05:55:27.325Z,86.94
2022-12-31T05:57:58.416Z,86.12
2022-12-31T06:00:30.886Z,86.22
2022-12-31T06:03:01.700Z,86.49
2022-12-31T06:05:33.439Z,86.59
2022-12-31T06:08:06.652Z,86.29
2022-12-31T06:10:39.150Z,86.26
2022-12-31T06:13:13.029Z,86.37
2022-12-31T06:15:51.159Z,86.61
2022-12-31T06:18:22.192Z,86.26
2022-12-31T06:20:53.228Z,86.18
2022-12-31T06:23:33.508Z,86.34
2022-12-31T06:26:05.475Z,86.12
2022-12-31T06:28:36.673Z,86.36
2022-12-31T06:31:11.577Z,86.14
2022-12-31T06:33:43.177Z,84.42
2022-12-31T06:36:15.648Z,82.70
2022-12-31T06:38:52.315Z,80.18
2022-12-31T06:41:23.425Z,77.12
2022-12-31T06:43:58.965Z,74.85
2022-12-31T06:48:03.589Z,71.80
2022-12-31T06:59:46.543Z,59.65
2022-12-31T07:02:51.577Z,58.90
2022-12-31T07:05:50.363Z,59.39
2022-12-31T07:08:57.757Z,56.42
2022-12-31T07:11:46.763Z,53.12
2022-12-31T07:14:31.930Z,52.96
2022-12-31T07:17:29.202Z,50.96
2022-12-31T07:20:16.337Z,50.05
2022-12-31T07:22:47.823Z,50.35
2022-12-31T07:25:19.722Z,49.04
2022-12-31T07:28:11.988Z,48.31
2022-12-31T07:31:21.499Z,46.87
2022-12-31T07:33:59.716Z,45.98
2022-12-31T07:36:55.624Z,45.61
2022-12-31T07:39:46.760Z,44.80
2022-12-31T07:42:36.474Z,45.74
2022-12-31T07:45:32.218Z,45.00
2022-12-31T07:48:03.252Z,44.99
2022-12-31T07:50:34.343Z,43.72
2022-12-31T07:53:05.577Z,43.79
2022-12-31T07:55:36.220Z,42.81
2022-12-31T07:58:46.177Z,41.29
2022-12-31T08:01:37.172Z,41.52
2022-12-31T08:04:48.995Z,41.12
2022-12-31T08:07:38.848Z,40.53
2022-12-31T08:10:33.261Z,42.43
2022-12-31T08:13:13.864Z,40.93
2022-12-31T08:15:45.995Z,39.72
2022-12-31T08:18:17.937Z,39.23
2022-12-31T08:21:09.491Z,38.62
2022-12-31T08:24:13.640Z,37.93
2022-12-31T08:26:59.120Z,37.90
2022-12-31T08:30:14.621Z,37.35
2022-12-31T08:33:30.114Z,37.31
2022-12-31T08:36:17.271Z,35.56
2022-12-31T08:39:08.039Z,35.73
2022-12-31T08:41:47.016Z,36.51
2022-12-31T08:44:42.179Z,34.64
2022-12-31T08:47:45.784Z,34.65
2022-12-31T08:50:18.825Z,34.41
2022-12-31T08:52:50.332Z,35.29
2022-12-31T08:55:21.994Z,34.78
2022-12-31T08:57:59.043Z,34.39
2022-12-31T09:00:31.971Z,34.04
2022-12-31T09:03:14.974Z,33.26
2022-12-31T09:06:14.011Z,33.90
2022-12-31T09:08:58.962Z,33.71
2022-12-31T09:11:58.213Z,32.58
2022-12-31T09:14:44.233Z,33.17
2022-12-31T09:17:39.926Z,33.31
2022-12-31T09:20:42.878Z,31.33
2022-12-31T09:23:15.036Z,31.09
2022-12-31T09:25:51.621Z,30.62
2022-12-31T09:28:49.545Z,30.68
2022-12-31T09:31:32.578Z,30.75
2022-12-31T09:34:35.779Z,30.66
2022-12-31T09:37:34.793Z,31.55
2022-12-31T09:40:39.663Z,29.94
2022-12-31T09:43:46.514Z,29.25
2022-12-31T09:46:30.333Z,29.48
2022-12-31T09:49:19.305Z,30.93
2022-12-31T09:52:25.843Z,31.90
2022-12-31T09:55:40.793Z,31.91
2022-12-31T09:58:31.151Z,31.63
2022-12-31T10:01:43.810Z,30.37
2022-12-31T10:04:56.280Z,30.63
2022-12-31T10:07:52.181Z,30.92
2022-12-31T10:10:30.361Z,29.79
2022-12-31T10:13:15.564Z,28.90
2022-12-31T10:16:00.963Z,28.38
2022-12-31T10:18:37.953Z,28.28
2022-12-31T10:21:16.942Z,29.24
2022-12-31T10:24:19.396Z,28.76
2022-12-31T10:27:16.643Z,28.38
2022-12-31T10:30:10.577Z,27.08
2022-12-31T10:33:18.239Z,26.68
2022-12-31T10:36:35.484Z,26.51
2022-12-31T10:39:24.603Z,26.13
2022-12-31T10:42:08.113Z,26.09
2022-12-31T10:45:21.584Z,24.97
2022-12-31T10:48:37.465Z,25.12
2022-12-31T10:51:39.504Z,24.64
2022-12-31T10:54:39.071Z,23.24
2022-12-31T10:57:30.436Z,23.58
2022-12-31T11:00:10.564Z,23.34
2022-12-31T11:02:56.804Z,23.66
2022-12-31T11:05:41.953Z,23.49
2022-12-31T11:08:21.940Z,24.05
2022-12-31T11:10:59.991Z,23.73
2022-12-31T11:13:43.315Z,23.49
2022-12-31T11:16:36.484Z,22.90
2022-12-31T11:19:26.686Z,23.19
2022-12-31T11:23:03.408Z,24.12
2022-12-31T11:25:46.746Z,22.26
2022-12-31T11:28:29.847Z,22.24
2022-12-31T11:31:21.393Z,22.18
2022-12-31T11:34:46.329Z,21.95
2022-12-31T11:38:12.133Z,22.12
2022-12-31T11:41:16.567Z,22.36
2022-12-31T11:44:06.124Z,22.32
2022-12-31T11:47:23.392Z,22.12
2022-12-31T11:50:16.351Z,22.04
2022-12-31T11:53:26.530Z,22.42
2022-12-31T11:56:47.924Z,22.67
2022-12-31T11:59:33.353Z,22.87
2022-12-31T12:02:58.238Z,22.93
2022-12-31T12:05:56.599Z,22.95
2022-12-31T12:08:56.358Z,23.41
2022-12-31T12:11:42.270Z,23.69
2022-12-31T12:15:03.161Z,23.89
2022-12-31T12:17:42.499Z,23.53
2022-12-31T12:20:43.299Z,23.53
2022-12-31T12:23:28.538Z,23.17
2022-12-31T12:26:03.034Z,23.33
2022-12-31T12:29:03.896Z,23.34
2022-12-31T12:32:08.976Z,23.23
2022-12-31T12:34:50.269Z,22.90
2022-12-31T12:37:46.459Z,23.55
2022-12-31T12:41:20.699Z,23.89
2022-12-31T12:44:18.770Z,24.15
2022-12-31T12:47:24.759Z,24.00
2022-12-31T12:50:53.842Z,24.58
2022-12-31T12:53:48.900Z,24.99
2022-12-31T12:57:21.391Z,25.20
2022-12-31T13:00:33.562Z,25.89
2022-12-31T13:08:11.057Z,26.70
2022-12-31T13:11:21.526Z,27.63
2022-12-31T13:14:22.758Z,28.15
2022-12-31T13:17:38.606Z,28.91
2022-12-31T13:20:56.823Z,29.43
2022-12-31T13:23:39.473Z,29.76
2022-12-31T13:26:46.163Z,29.86
2022-12-31T13:29:33.149Z,30.19
2022-12-31T13:32:12.098Z,30.64
2022-12-31T13:35:21.080Z,31.12
2022-12-31T13:38:19.786Z,31.93
2022-12-31T13:41:19.195Z,32.04
2022-12-31T13:44:25.989Z,32.56
2022-12-31T13:47:40.647Z,32.69
2022-12-31T13:50:39.930Z,32.87
2022-12-31T13:53:50.559Z,33.18
2022-12-31T13:56:34.023Z,33.67
2022-12-31T13:59:37.171Z,34.16
2022-12-31T14:02:43.219Z,34.72
2022-12-31T14:05:32.831Z,35.91
2022-12-31T14:08:08.607Z,36.50
2022-12-31T14:11:08.635Z,37.19
2022-12-31T14:14:08.361Z,37.41
2022-12-31T14:17:55.366Z,37.71
2022-12-31T14:20:49.713Z,38.28
2022-12-31T14:23:57.386Z,39.47
2022-12-31T14:26:34.271Z,39.97
2022-12-31T14:29:45.603Z,41.24
2022-12-31T14:40:08.005Z,42.83
2022-12-31T14:42:47.921Z,44.30
2022-12-31T14:45:48.972Z,45.26
2022-12-31T14:48:56.553Z,46.17
2022-12-31T14:51:49.406Z,52.46
2022-12-31T14:54:42.881Z,55.46
2022-12-31T14:58:26.465Z,56.24
2022-12-31T15:01:30.529Z,54.29
2022-12-31T15:04:25.125Z,47.90
2022-12-31T15:07:10.446Z,46.19
2022-12-31T15:10:20.488Z,47.04
2022-12-31T15:13:39.521Z,47.84
2022-12-31T15:16:50.542Z,48.51
2022-12-31T15:19:56.493Z,49.10
2022-12-31T15:23:26.447Z,49.71
2022-12-31T15:26:37.154Z,50.70
2022-12-31T15:29:39.379Z,51.49
2022-12-31T15:32:45.230Z,52.20
2022-12-31T15:35:54.303Z,52.86
2022-12-31T15:39:16.764Z,53.73
2022-12-31T15:45:22.533Z,55.93
2022-12-31T15:48:17.781Z,56.78
2022-12-31T15:50:54.328Z,57.56
2022-12-31T15:53:53.770Z,58.30
2022-12-31T15:56:42.519Z,59.02
2022-12-31T15:59:49.513Z,59.16
2022-12-31T16:02:30.279Z,59.59
2022-12-31T16:05:38.389Z,59.80
2022-12-31T16:08:28.984Z,58.44
2022-12-31T16:11:22.201Z,58.54
2022-12-31T16:13:55.876Z,58.65
2022-12-31T16:16:32.487Z,58.41
2022-12-31T16:19:47.227Z,58.57
2022-12-31T16:22:29.719Z,58.77
2022-12-31T16:25:30.214Z,59.00
2022-12-31T16:28:03.797Z,59.36
2022-12-31T16:30:38.567Z,59.53
2022-12-31T16:33:49.254Z,59.98
2022-12-31T16:36:32.432Z,60.21
2022-12-31T16:39:39.915Z,60.13
2022-12-31T16:42:23.866Z,61.31
2022-12-31T16:44:56.836Z,61.01
2022-12-31T16:47:50.424Z,61.30
2022-12-31T16:50:36.329Z,61.60
2022-12-31T16:53:21.883Z,61.78
2022-12-31T16:56:09.269Z,62.30
2022-12-31T16:59:18.113Z,61.90
2022-12-31T17:02:04.616Z,62.58
2022-12-31T17:04:56.629Z,62.86
2022-12-31T17:08:19.712Z,63.02
2022-12-31T17:10:52.985Z,64.03
2022-12-31T17:13:38.892Z,64.95
2022-12-31T17:16:20.640Z,64.52
2022-12-31T17:19:00.114Z,65.11
2022-12-31T17:21:37.444Z,65.85
2022-12-31T17:24:13.908Z,66.32
2022-12-31T17:26:46.998Z,66.20
2022-12-31T17:29:27.216Z,66.65
2022-12-31T17:32:31.293Z,66.80
2022-12-31T17:35:42.089Z,66.54
2022-12-31T17:38:45.173Z,67.19
2022-12-31T17:41:42.263Z,67.76
2022-12-31T17:44:26.006Z,67.31
2022-12-31T17:47:12.097Z,67.70
2022-12-31T17:49:47.119Z,67.33
2022-12-31T17:52:28.838Z,67.67
2022-12-31T17:55:08.173Z,68.19
2022-12-31T17:57:59.317Z,68.07
2022-12-31T18:00:33.460Z,68.49
2022-12-31T18:03:08.844Z,67.99
2022-12-31T18:05:43.103Z,68.54
2022-12-31T18:08:15.030Z,69.14
2022-12-31T18:10:48.060Z,69.24
2022-12-31T18:13:37.609Z,67.55
2022-12-31T18:16:21.070Z,67.91
2022-12-31T18:19:02.127Z,67.93
2022-12-31T18:21:57.656Z,68.57
2022-12-31T18:24:41.228Z,69.26
2022-12-31T18:27:28.719Z,70.33
2022-12-31T18:30:27.359Z,70.35
2022-12-31T18:33:16.994Z,70.68
2022-12-31T18:36:14.769Z,69.93
2022-12-31T18:38:54.670Z,71.35
2022-12-31T18:41:39.067Z,70.90
2022-12-31T18:44:15.692Z,71.11
2022-12-31T18:46:49.263Z,71.24
2022-12-31T18:49:26.318Z,71.26
2022-12-31T18:52:04.423Z,71.42
2022-12-31T18:54:46.119Z,72.46
2022-12-31T18:57:22.876Z,72.18
2022-12-31T19:06:20.871Z,72.66
2022-12-31T19:09:01.782Z,72.96
2022-12-31T19:15:03.016Z,72.40
2022-12-31T19:18:13.299Z,72.65
2022-12-31T19:21:22.879Z,73.53
2022-12-31T19:24:06.202Z,72.56
2022-12-31T19:27:35.273Z,73.66
2022-12-31T19:30:36.421Z,74.25
2022-12-31T19:33:18.339Z,73.27
2022-12-31T19:36:00.205Z,72.84
2022-12-31T19:38:40.972Z,73.07
2022-12-31T19:41:58.759Z,72.62
2022-12-31T19:45:01.692Z,72.62
2022-12-31T19:48:10.305Z,72.96
2022-12-31T19:51:08.899Z,73.47
2022-12-31T19:53:45.477Z,74.74
2022-12-31T19:56:20.001Z,74.86
2022-12-31T19:59:12.116Z,75.44
2022-12-31T20:02:04.413Z,75.01
2022-12-31T20:04:35.280Z,75.22
2022-12-31T20:07:04.907Z,74.80
2022-12-31T20:09:35.724Z,74.73
2022-12-31T20:12:07.244Z,74.95
2022-12-31T20:14:39.236Z,75.61
2022-12-31T20:17:10.365Z,76.29
2022-12-31T20:19:55.431Z,76.46
2022-12-31T20:22:25.336Z,76.06
2022-12-31T20:24:55.204Z,75.97
2022-12-31T20:27:39.938Z,75.25
2022-12-31T20:30:25.590Z,75.23
2022-12-31T20:33:17.318Z,75.14
2022-12-31T20:35:51.256Z,75.45
2022-12-31T20:38:26.032Z,75.33
2022-12-31T20:41:21.510Z,75.35
2022-12-31T20:43:52.573Z,75.63
2022-12-31T20:46:26.313Z,75.41
2022-12-31T20:49:04.562Z,75.66
2022-12-31T20:51:36.807Z,76.06
2022-12-31T20:54:12.653Z,76.06
2022-12-31T20:56:45.843Z,76.44
2022-12-31T20:59:35.050Z,76.82
2022-12-31T21:02:29.594Z,77.38
2022-12-31T21:04:59.514Z,77.83
2022-12-31T21:07:35.472Z,77.33
2022-12-31T21:10:06.763Z,78.14
2022-12-31T21:12:43.722Z,77.69
2022-12-31T21:15:14.774Z,77.44
2022-12-31T21:17:44.257Z,76.96
2022-12-31T21:20:17.042Z,77.34
2022-12-31T21:22:48.005Z,76.69
2022-12-31T21:25:21.551Z,77.53
2022-12-31T21:27:52.591Z,76.86
2022-12-31T21:30:25.182Z,77.37
2022-12-31T21:32:56.019Z,77.33
2022-12-31T21:35:53.743Z,77.42
2022-12-31T21:38:23.113Z,78.06
2022-12-31T21:40:56.501Z,78.13
2022-12-31T21:43:27.920Z,78.11
2022-12-31T21:46:08.144Z,79.15
2022-12-31T21:48:39.163Z,79.16
2022-12-31T21:51:15.315Z,79.17
2022-12-31T21:53:49.185Z,78.98
2022-12-31T21:56:21.394Z,78.93
2022-12-31T21:59:18.721Z,79.91
2022-12-31T22:02:08.450Z,80.49
2022-12-31T22:07:31.909Z,79.13
2022-12-31T22:10:03.555Z,79.33
2022-12-31T22:12:34.074Z,80.35
2022-12-31T22:15:15.851Z,80.18
2022-12-31T22:17:46.728Z,80.30
2022-12-31T22:20:27.516Z,80.62
2022-12-31T22:22:59.675Z,81.27
2022-12-31T22:25:30.550Z,81.09
2022-12-31T22:30:51.871Z,81.36
2022-12-31T22:33:22.707Z,81.45
2022-12-31T22:36:08.230Z,81.47
2022-12-31T22:38:40.029Z,80.87
2022-12-31T22:41:17.173Z,80.99
2022-12-31T22:43:50.715Z,81.18
2022-12-31T22:46:45.975Z,81.33
2022-12-31T22:49:17.419Z,81.79
2022-12-31T22:51:57.790Z,82.29
2022-12-31T22:54:30.513Z,82.28
2022-12-31T22:57:01.497Z,82.01
2022-12-31T22:59:30.803Z,82.37
2022-12-31T23:02:01.901Z,82.12
2022-12-31T23:04:33.148Z,82.51
2022-12-31T23:07:04.538Z,82.03
2022-12-31T23:09:55.167Z,81.85
2022-12-31T23:12:26.155Z,82.23
2022-12-31T23:15:16.819Z,82.26
2022-12-31T23:18:04.887Z,82.05
2022-12-31T23:20:54.651Z,81.93
2022-12-31T23:23:26.593Z,82.35
2022-12-31T23:26:04.006Z,82.29
2022-12-31T23:28:38.213Z,82.44
2022-12-31T23:31:09.821Z,82.21
2022-12-31T23:33:40.451Z,81.56
2022-12-31T23:36:11.696Z,82.64
2022-12-31T23:38:42.404Z,82.57
2022-12-31T23:41:19.923Z,82.24
2022-12-31T23:43:51.102Z,82.66
2022-12-31T23:46:21.904Z,82.84
2022-12-31T23:48:53.962Z,82.44
2022-12-31T23:51:25.068Z,82.60
2022-12-31T23:53:56.096Z,83.50
2022-12-31T23:56:25.146Z,83.50
2022-12-31T23:59:00.490Z,83.24
